createdAt,value
2023-05-23T00:00:33.697Z,13.90
2023-05-23T00:03:14.964Z,13.90
2023-05-23T00:05:41.848Z,13.90
2023-05-23T00:08:08.751Z,13.90
2023-05-23T00:10:38.081Z,13.92
2023-05-23T00:13:08.333Z,13.95
2023-05-23T00:15:41.634Z,13.93
2023-05-23T00:18:17.480Z,13.95
2023-05-23T00:20:45.656Z,13.97
2023-05-23T00:23:22.408Z,13.99
2023-05-23T00:26:00.883Z,13.98
2023-05-23T00:28:30.457Z,13.97
2023-05-23T00:30:57.294Z,13.98
2023-05-23T00:33:33.452Z,13.94
2023-05-23T00:36:12.317Z,13.85
2023-05-23T00:38:39.627Z,13.89
2023-05-23T00:41:11.333Z,13.88
2023-05-23T00:43:38.226Z,13.83
2023-05-23T00:46:10.020Z,13.78
2023-05-23T00:48:38.630Z,13.75
2023-05-23T00:51:10.776Z,13.78
2023-05-23T00:53:40.643Z,13.81
2023-05-23T00:56:07.830Z,13.80
2023-05-23T00:58:37.337Z,13.82
2023-05-23T01:01:08.260Z,13.82
2023-05-23T01:03:35.056Z,13.82
2023-05-23T01:06:02.447Z,13.85
2023-05-23T01:08:32.220Z,13.85
2023-05-23T01:11:10.718Z,13.82
2023-05-23T01:13:56.305Z,13.78
2023-05-23T01:16:48.555Z,13.74
2023-05-23T01:20:09.108Z,13.69
2023-05-23T01:23:04.940Z,13.58
2023-05-23T01:26:18.716Z,13.53
2023-05-23T01:28:56.633Z,13.49
2023-05-23T01:31:32.340Z,13.44
2023-05-23T01:33:59.326Z,13.42
2023-05-23T01:36:33.587Z,13.49
2023-05-23T01:39:03.201Z,13.47
2023-05-23T01:41:33.591Z,13.42
2023-05-23T01:44:03.317Z,13.41
2023-05-23T01:46:44.314Z,13.36
2023-05-23T01:49:15.687Z,13.41
2023-05-23T01:51:49.998Z,13.39
2023-05-23T01:54:21.708Z,13.39
2023-05-23T01:56:54.479Z,13.36
2023-05-23T01:59:21.304Z,13.32
2023-05-23T02:01:48.228Z,13.28
2023-05-23T02:04:18.588Z,13.30
2023-05-23T02:06:46.572Z,13.33
2023-05-23T02:09:13.995Z,13.37
2023-05-23T02:11:40.622Z,13.40
2023-05-23T02:14:07.776Z,13.43
2023-05-23T02:16:36.505Z,13.43
2023-05-23T02:19:11.790Z,13.40
2023-05-23T02:21:47.588Z,13.40
2023-05-23T02:24:14.617Z,13.41
2023-05-23T02:26:44.540Z,13.46
2023-05-23T02:29:11.503Z,13.47
2023-05-23T02:31:41.341Z,13.47
2023-05-23T02:34:08.191Z,13.45
2023-05-23T02:36:37.156Z,13.41
2023-05-23T02:39:08.011Z,13.38
2023-05-23T02:41:34.766Z,13.33
2023-05-23T02:44:05.858Z,13.27
2023-05-23T02:46:35.850Z,13.31
2023-05-23T02:49:08.845Z,13.32
2023-05-23T02:51:36.139Z,13.36
2023-05-23T02:54:06.223Z,13.31
2023-05-23T02:56:32.923Z,13.31
2023-05-23T02:59:07.257Z,13.33
2023-05-23T03:01:40.757Z,13.28
2023-05-23T03:04:07.822Z,13.28
2023-05-23T03:06:36.930Z,13.30
2023-05-23T03:09:06.498Z,13.25
2023-05-23T03:11:33.273Z,13.26
2023-05-23T03:14:03.243Z,13.29
2023-05-23T03:16:33.241Z,13.27
2023-05-23T03:19:21.795Z,13.28
2023-05-23T03:21:50.316Z,13.30
2023-05-23T03:24:17.046Z,13.36
2023-05-23T03:26:44.018Z,13.37
2023-05-23T03:29:11.321Z,13.40
2023-05-23T03:31:44.088Z,13.37
2023-05-23T03:34:10.787Z,13.36
2023-05-23T03:36:39.257Z,13.40
2023-05-23T03:39:11.602Z,13.39
2023-05-23T03:41:44.386Z,13.43
2023-05-23T03:44:11.330Z,13.47
2023-05-23T03:46:39.646Z,13.54
2023-05-23T03:49:09.080Z,13.65
2023-05-23T03:51:35.695Z,13.72
2023-05-23T03:54:02.492Z,13.73
2023-05-23T03:56:29.230Z,13.73
2023-05-23T03:58:55.897Z,13.73
2023-05-23T04:01:22.866Z,13.75
2023-05-23T04:03:55.822Z,13.73
2023-05-23T04:06:23.346Z,13.76
2023-05-23T04:08:50.001Z,13.75
2023-05-23T04:11:19.750Z,13.78
2023-05-23T04:13:49.606Z,13.74
2023-05-23T04:16:16.632Z,13.78
2023-05-23T04:18:43.461Z,13.78
2023-05-23T04:21:15.997Z,13.78
2023-05-23T04:23:42.694Z,13.81
2023-05-23T04:26:13.047Z,13.79
2023-05-23T04:28:48.734Z,13.75
2023-05-23T04:31:15.862Z,13.73
2023-05-23T04:33:42.928Z,13.76
2023-05-23T04:36:11.774Z,13.75
2023-05-23T04:38:42.379Z,13.81
2023-05-23T04:41:10.322Z,13.84
2023-05-23T04:43:46.189Z,13.87
2023-05-23T04:46:13.946Z,13.86
2023-05-23T04:48:40.689Z,13.84
2023-05-23T04:51:11.418Z,13.82
2023-05-23T04:53:41.308Z,13.79
2023-05-23T04:56:11.014Z,13.74
2023-05-23T04:58:37.841Z,13.73
2023-05-23T05:01:08.702Z,13.76
2023-05-23T05:03:38.196Z,13.74
2023-05-23T05:06:08.473Z,13.78
2023-05-23T05:08:41.073Z,13.79
2023-05-23T05:11:09.249Z,13.74
2023-05-23T05:13:38.134Z,13.73
2023-05-23T05:16:08.404Z,13.64
2023-05-23T05:18:42.562Z,13.58
2023-05-23T05:21:09.574Z,13.51
2023-05-23T05:23:38.671Z,13.39
2023-05-23T05:26:17.859Z,13.27
2023-05-23T05:28:44.708Z,13.19
2023-05-23T05:31:15.512Z,13.08
2023-05-23T05:33:46.015Z,13.00
2023-05-23T05:36:18.463Z,12.93
2023-05-23T05:38:50.036Z,12.89
2023-05-23T05:41:20.254Z,12.78
2023-05-23T05:43:50.337Z,12.69
2023-05-23T05:46:17.286Z,12.67
2023-05-23T05:48:51.758Z,12.68
2023-05-23T05:51:18.624Z,12.66
2023-05-23T05:53:46.401Z,12.63
2023-05-23T05:56:15.967Z,12.66
2023-05-23T05:58:43.355Z,12.65
2023-05-23T06:01:12.620Z,12.66
2023-05-23T06:03:41.682Z,12.60
2023-05-23T06:06:09.105Z,12.57
2023-05-23T06:08:41.616Z,12.50
2023-05-23T06:11:08.432Z,12.56
2023-05-23T06:13:52.008Z,12.60
2023-05-23T06:16:18.901Z,12.69
2023-05-23T06:18:45.620Z,12.70
2023-05-23T06:21:12.425Z,12.75
2023-05-23T06:23:48.233Z,12.65
2023-05-23T06:26:15.173Z,12.59
2023-05-23T06:28:45.108Z,12.58
2023-05-23T06:31:12.447Z,12.57
2023-05-23T06:33:39.218Z,12.56
2023-05-23T06:36:08.561Z,12.54
2023-05-23T06:38:38.371Z,12.55
2023-05-23T06:41:08.665Z,12.55
2023-05-23T06:46:22.638Z,12.70
2023-05-23T06:48:54.251Z,12.80
2023-05-23T06:51:26.125Z,12.86
2023-05-23T06:54:07.886Z,12.92
2023-05-23T06:56:38.867Z,12.95
2023-05-23T06:59:16.765Z,13.05
2023-05-23T07:01:51.421Z,13.12
2023-05-23T07:04:20.589Z,13.11
2023-05-23T07:06:54.970Z,13.15
2023-05-23T07:09:22.166Z,13.17
2023-05-23T07:11:48.857Z,13.18
2023-05-23T07:14:17.572Z,13.13
2023-05-23T07:16:44.464Z,13.00
2023-05-23T07:19:13.700Z,12.99
2023-05-23T07:21:46.732Z,12.97
2023-05-23T07:24:13.506Z,12.96
2023-05-23T07:26:40.898Z,12.97
2023-05-23T07:29:07.856Z,13.02
2023-05-23T07:31:34.828Z,13.02
2023-05-23T07:34:02.771Z,12.99
2023-05-23T07:36:48.410Z,13.10
2023-05-23T07:39:24.400Z,13.12
2023-05-23T07:41:51.408Z,13.15
2023-05-23T07:44:23.298Z,13.18
2023-05-23T07:46:52.021Z,13.21
2023-05-23T07:49:19.245Z,13.22
2023-05-23T07:51:48.274Z,13.23
2023-05-23T07:54:16.482Z,13.28
2023-05-23T07:56:45.307Z,13.29
2023-05-23T07:59:14.708Z,13.23
2023-05-23T08:01:47.105Z,13.18
2023-05-23T08:04:14.071Z,13.17
2023-05-23T08:07:00.773Z,13.15
2023-05-23T08:09:31.617Z,13.09
2023-05-23T08:11:58.552Z,13.08
2023-05-23T08:14:38.749Z,12.99
2023-05-23T08:17:16.443Z,12.93
2023-05-23T08:19:45.037Z,12.87
2023-05-23T08:22:14.674Z,12.79
2023-05-23T08:24:46.978Z,12.64
2023-05-23T08:27:13.768Z,12.53
2023-05-23T08:29:49.724Z,12.37
2023-05-23T08:32:19.632Z,12.27
2023-05-23T08:34:49.571Z,12.13
2023-05-23T08:37:16.467Z,12.11
2023-05-23T08:39:49.271Z,12.14
2023-05-23T08:42:16.296Z,12.12
2023-05-23T08:44:43.676Z,12.23
2023-05-23T08:47:15.248Z,12.31
2023-05-23T08:49:49.663Z,12.44
2023-05-23T08:52:24.965Z,12.44
2023-05-23T08:54:57.428Z,12.40
2023-05-23T08:57:25.034Z,12.31
2023-05-23T08:59:56.884Z,12.31
2023-05-23T09:02:25.066Z,12.29
2023-05-23T09:05:01.213Z,12.27
2023-05-23T09:07:31.554Z,12.26
2023-05-23T09:10:01.455Z,12.19
2023-05-23T09:12:28.233Z,12.12
2023-05-23T09:15:02.449Z,12.02
2023-05-23T09:17:29.083Z,11.93
2023-05-23T09:19:55.858Z,11.84
2023-05-23T09:22:29.170Z,11.78
2023-05-23T09:24:57.961Z,11.71
2023-05-23T09:27:24.949Z,11.65
2023-05-23T09:29:51.726Z,11.57
2023-05-23T09:32:25.831Z,11.53
2023-05-23T09:35:07.323Z,11.40
2023-05-23T09:37:43.318Z,11.32
2023-05-23T09:40:18.654Z,11.20
2023-05-23T09:42:49.816Z,11.13
2023-05-23T09:45:17.332Z,11.02
2023-05-23T09:47:56.588Z,10.96
2023-05-23T09:50:36.352Z,11.00
2023-05-23T09:53:03.265Z,11.04
2023-05-23T09:55:33.598Z,11.09
2023-05-23T09:58:04.954Z,11.12
2023-05-23T10:00:33.160Z,11.16
2023-05-23T10:03:14.271Z,11.18
2023-05-23T10:06:06.719Z,11.13
2023-05-23T10:08:58.723Z,11.11
2023-05-23T10:11:34.770Z,11.12
2023-05-23T10:14:11.500Z,11.02
2023-05-23T10:17:06.762Z,10.96
2023-05-23T10:20:08.631Z,10.92
2023-05-23T10:22:38.379Z,10.94
2023-05-23T10:25:10.539Z,10.94
2023-05-23T10:27:39.885Z,10.92
2023-05-23T10:30:11.392Z,10.92
2023-05-23T10:32:43.832Z,10.91
2023-05-23T10:35:52.083Z,10.94
2023-05-23T10:38:52.047Z,10.88
2023-05-23T10:41:58.322Z,10.83
2023-05-23T10:44:29.701Z,10.82
2023-05-23T10:47:06.515Z,10.88
2023-05-23T10:49:54.831Z,10.89
2023-05-23T10:52:28.031Z,10.93
2023-05-23T10:54:56.597Z,11.08
2023-05-23T10:57:29.968Z,11.24
2023-05-23T10:59:57.513Z,11.32
2023-05-23T11:02:29.663Z,11.40
2023-05-23T11:05:24.728Z,11.42
2023-05-23T11:08:17.780Z,11.38
2023-05-23T11:11:02.313Z,11.33
2023-05-23T11:13:57.067Z,11.33
2023-05-23T11:16:47.231Z,11.56
2023-05-23T11:19:20.394Z,11.74
2023-05-23T11:22:02.565Z,11.86
2023-05-23T11:24:59.893Z,11.94
2023-05-23T11:27:38.080Z,12.04
2023-05-23T11:30:18.555Z,12.34
2023-05-23T11:32:56.455Z,12.38
2023-05-23T11:35:23.877Z,12.44
2023-05-23T11:37:51.394Z,12.73
2023-05-23T11:40:34.760Z,12.82
2023-05-23T11:43:12.265Z,12.94
2023-05-23T11:45:46.192Z,13.08
2023-05-23T11:48:19.828Z,13.20
2023-05-23T11:51:01.016Z,13.15
2023-05-23T11:53:35.289Z,13.11
2023-05-23T11:56:03.560Z,12.87
2023-05-23T11:58:40.074Z,12.58
2023-05-23T12:01:13.825Z,12.59
2023-05-23T12:03:55.281Z,12.76
2023-05-23T12:06:27.591Z,12.98
2023-05-23T12:09:00.218Z,13.10
2023-05-23T12:11:27.678Z,13.23
2023-05-23T12:17:00.050Z,13.35
2023-05-23T12:19:27.568Z,13.28
2023-05-23T12:22:12.732Z,13.23
2023-05-23T12:27:41.847Z,13.28
2023-05-23T12:30:16.740Z,13.44
2023-05-23T12:32:58.358Z,13.61
2023-05-23T12:35:26.237Z,13.89
2023-05-23T12:37:59.503Z,14.17
2023-05-23T12:40:26.608Z,14.74
2023-05-23T12:42:57.392Z,15.03
2023-05-23T12:45:37.922Z,15.05
2023-05-23T12:48:09.355Z,15.08
2023-05-23T12:50:36.954Z,14.95
2023-05-23T12:53:07.955Z,14.92
2023-05-23T12:55:34.835Z,15.22
2023-05-23T12:58:01.538Z,15.48
2023-05-23T13:00:28.189Z,15.47
2023-05-23T13:02:58.093Z,15.71
2023-05-23T13:05:25.005Z,15.51
2023-05-23T13:07:52.005Z,15.36
2023-05-23T13:10:21.601Z,15.19
2023-05-23T13:12:52.064Z,15.24
2023-05-23T13:15:19.139Z,15.32
2023-05-23T13:17:50.177Z,15.61
2023-05-23T13:20:17.760Z,15.52
2023-05-23T13:22:44.613Z,15.27
2023-05-23T13:25:12.221Z,15.04
2023-05-23T13:27:39.252Z,14.87
2023-05-23T13:30:12.631Z,14.98
2023-05-23T13:32:41.496Z,15.04
2023-05-23T13:35:13.246Z,14.77
2023-05-23T13:37:40.419Z,15.04
2023-05-23T13:40:19.527Z,14.98
2023-05-23T13:42:52.104Z,14.84
2023-05-23T13:45:22.503Z,14.55
2023-05-23T13:47:55.139Z,14.25
2023-05-23T13:50:21.944Z,14.18
2023-05-23T13:53:00.561Z,14.12
2023-05-23T13:55:27.609Z,14.34
2023-05-23T14:00:39.220Z,14.32
2023-05-23T14:03:10.243Z,14.19
2023-05-23T14:05:37.450Z,13.92
2023-05-23T14:08:14.072Z,13.82
2023-05-23T14:10:44.097Z,13.92
2023-05-23T14:13:19.794Z,14.17
2023-05-23T14:15:46.692Z,14.30
2023-05-23T14:18:14.824Z,14.29
2023-05-23T14:20:47.865Z,14.26
2023-05-23T14:23:20.756Z,14.24
2023-05-23T14:25:47.383Z,14.21
2023-05-23T14:28:14.545Z,14.15
2023-05-23T14:30:41.266Z,14.02
2023-05-23T14:33:10.591Z,13.85
2023-05-23T14:35:39.861Z,13.83
2023-05-23T14:38:12.583Z,13.91
2023-05-23T14:40:39.268Z,13.88
2023-05-23T14:43:09.495Z,13.89
2023-05-23T14:45:37.067Z,13.90
2023-05-23T14:48:09.802Z,13.92
2023-05-23T14:50:40.662Z,14.00
2023-05-23T14:53:28.768Z,14.07
2023-05-23T14:56:02.360Z,14.32
2023-05-23T14:58:32.660Z,15.29
2023-05-23T15:00:59.697Z,15.16
2023-05-23T15:03:27.108Z,14.83
2023-05-23T15:06:06.863Z,14.67
2023-05-23T15:08:38.552Z,14.60
2023-05-23T15:11:09.755Z,14.41
2023-05-23T15:13:41.626Z,14.22
2023-05-23T15:16:08.566Z,13.98
2023-05-23T15:18:41.347Z,13.89
2023-05-23T15:21:14.604Z,13.82
2023-05-23T15:23:41.682Z,13.77
2023-05-23T15:26:08.573Z,13.76
2023-05-23T15:28:35.381Z,13.64
2023-05-23T15:31:08.216Z,13.55
2023-05-23T15:33:34.954Z,13.66
2023-05-23T15:36:08.131Z,13.83
2023-05-23T15:38:34.848Z,13.88
2023-05-23T15:41:08.826Z,13.70
2023-05-23T15:43:45.155Z,13.44
2023-05-23T15:46:12.097Z,13.10
2023-05-23T15:48:41.724Z,12.86
2023-05-23T15:51:14.514Z,12.63
2023-05-23T15:53:59.225Z,12.59
2023-05-23T15:56:34.594Z,12.49
2023-05-23T15:59:07.695Z,12.32
2023-05-23T16:01:59.672Z,12.22
2023-05-23T16:04:46.491Z,12.13
2023-05-23T16:07:19.556Z,12.04
2023-05-23T16:09:46.232Z,12.18
2023-05-23T16:12:14.869Z,12.29
2023-05-23T16:14:44.198Z,12.42
2023-05-23T16:17:11.004Z,12.57
2023-05-23T16:19:38.094Z,12.59
2023-05-23T16:22:08.178Z,12.58
2023-05-23T16:24:35.225Z,12.50
2023-05-23T16:27:06.327Z,12.38
2023-05-23T16:29:35.366Z,12.21
2023-05-23T16:32:02.408Z,12.20
2023-05-23T16:34:29.695Z,12.03
2023-05-23T16:36:59.352Z,11.98
2023-05-23T16:39:26.054Z,11.98
2023-05-23T16:42:00.714Z,11.96
2023-05-23T16:44:27.785Z,11.95
2023-05-23T16:46:57.603Z,11.93
2023-05-23T16:49:24.286Z,11.86
2023-05-23T16:51:51.104Z,11.84
2023-05-23T16:54:17.909Z,11.83
2023-05-23T16:56:44.579Z,11.81
2023-05-23T16:59:11.520Z,11.80
2023-05-23T17:01:49.980Z,11.75
2023-05-23T17:04:20.571Z,11.67
2023-05-23T17:07:08.210Z,11.61
2023-05-23T17:09:42.929Z,11.50
2023-05-23T17:12:10.099Z,11.34
2023-05-23T17:14:41.615Z,11.22
2023-05-23T17:17:08.336Z,11.16
2023-05-23T17:19:51.400Z,11.06
2023-05-23T17:22:26.822Z,10.87
2023-05-23T17:25:07.800Z,10.82
2023-05-23T17:27:37.063Z,10.74
2023-05-23T17:30:27.730Z,10.67
2023-05-23T17:32:57.954Z,10.69
2023-05-23T17:35:29.880Z,10.63
2023-05-23T17:38:11.861Z,10.55
2023-05-23T17:40:43.422Z,10.50
2023-05-23T17:43:13.240Z,10.49
2023-05-23T17:45:45.702Z,10.49
2023-05-23T17:48:16.640Z,10.43
2023-05-23T17:50:45.169Z,10.42
2023-05-23T17:56:00.271Z,10.30
2023-05-23T17:58:27.254Z,10.27
2023-05-23T18:01:02.790Z,10.29
2023-05-23T18:03:30.895Z,10.29
2023-05-23T18:06:00.743Z,10.25
2023-05-23T18:08:30.283Z,10.17
2023-05-23T18:11:00.373Z,10.15
2023-05-23T18:13:27.425Z,10.14
2023-05-23T18:16:02.127Z,10.09
2023-05-23T18:18:34.821Z,10.09
2023-05-23T18:21:02.863Z,10.08
2023-05-23T18:23:29.829Z,10.08
2023-05-23T18:25:59.908Z,10.06
2023-05-23T18:28:26.987Z,10.09
2023-05-23T18:31:00.678Z,10.09
2023-05-23T18:33:27.865Z,10.08
2023-05-23T18:36:13.080Z,10.01
2023-05-23T18:38:41.684Z,10.03
2023-05-23T18:41:13.201Z,10.00
2023-05-23T18:43:42.727Z,9.97
2023-05-23T18:46:13.244Z,9.95
2023-05-23T18:48:43.101Z,9.98
2023-05-23T18:51:14.405Z,9.95
2023-05-23T18:53:44.166Z,9.91
2023-05-23T18:56:14.213Z,9.88
2023-05-23T18:58:45.407Z,9.84
2023-05-23T19:01:21.912Z,9.89
2023-05-23T19:03:50.658Z,9.89
2023-05-23T19:06:17.571Z,9.88
2023-05-23T19:08:44.382Z,9.92
2023-05-23T19:11:11.263Z,9.91
2023-05-23T19:13:41.549Z,9.90
2023-05-23T19:16:13.209Z,9.88
2023-05-23T19:18:40.759Z,9.84
2023-05-23T19:21:16.508Z,9.84
2023-05-23T19:23:45.215Z,9.80
2023-05-23T19:26:13.565Z,9.75
2023-05-23T19:31:22.030Z,9.73
2023-05-23T19:33:50.678Z,9.74
2023-05-23T19:36:21.340Z,9.72
2023-05-23T19:38:48.255Z,9.70
2023-05-23T19:41:15.102Z,9.73
2023-05-23T19:43:41.761Z,9.65
2023-05-23T19:46:11.666Z,9.67
2023-05-23T19:48:39.111Z,9.66
2023-05-23T19:51:13.660Z,9.66
2023-05-23T19:53:47.447Z,9.68
2023-05-23T19:56:16.664Z,9.66
2023-05-23T19:58:46.204Z,9.68
2023-05-23T20:01:13.256Z,9.69
2023-05-23T20:03:39.951Z,9.66
2023-05-23T20:06:06.815Z,9.63
2023-05-23T20:08:33.580Z,9.66
2023-05-23T20:11:03.118Z,9.67
2023-05-23T20:13:31.617Z,9.68
2023-05-23T20:15:58.610Z,9.64
2023-05-23T20:18:28.311Z,9.59
2023-05-23T20:20:57.854Z,9.68
2023-05-23T20:23:24.640Z,9.65
2023-05-23T20:25:51.791Z,9.64
2023-05-23T20:28:23.651Z,9.59
2023-05-23T20:30:56.750Z,9.58
2023-05-23T20:33:23.659Z,9.64
2023-05-23T20:36:12.096Z,9.63
2023-05-23T20:38:39.255Z,9.66
2023-05-23T20:41:10.459Z,9.66
2023-05-23T20:43:37.879Z,9.61
2023-05-23T20:46:19.596Z,9.66
2023-05-23T20:48:46.406Z,9.64
2023-05-23T20:51:13.489Z,9.65
2023-05-23T20:53:40.547Z,9.60
2023-05-23T20:56:16.240Z,9.57
2023-05-23T20:58:45.943Z,9.54
2023-05-23T21:01:17.106Z,9.55
2023-05-23T21:03:44.108Z,9.50
2023-05-23T21:06:17.711Z,9.53
2023-05-23T21:08:47.417Z,9.54
2023-05-23T21:11:17.177Z,9.54
2023-05-23T21:13:47.529Z,9.51
2023-05-23T21:16:17.122Z,9.48
2023-05-23T21:18:45.699Z,9.46
2023-05-23T21:21:15.832Z,9.43
2023-05-23T21:23:42.611Z,9.38
2023-05-23T21:26:09.409Z,9.34
2023-05-23T21:28:36.076Z,9.32
2023-05-23T21:31:15.181Z,9.33
2023-05-23T21:33:42.140Z,9.33
2023-05-23T21:36:08.901Z,9.36
2023-05-23T21:38:37.480Z,9.35
2023-05-23T21:41:07.506Z,9.34
2023-05-23T21:43:36.627Z,9.34
2023-05-23T21:46:09.143Z,9.36
2023-05-23T21:48:35.921Z,9.34
2023-05-23T21:51:05.860Z,9.32
2023-05-23T21:53:35.886Z,9.29
2023-05-23T21:56:08.594Z,9.34
2023-05-23T21:58:35.419Z,9.29
2023-05-23T22:01:07.601Z,9.32
2023-05-23T22:03:34.447Z,9.28
2023-05-23T22:06:01.278Z,9.27
2023-05-23T22:08:31.798Z,9.25
2023-05-23T22:10:59.485Z,9.25
2023-05-23T22:13:27.351Z,9.28
2023-05-23T22:15:56.896Z,9.24
2023-05-23T22:18:27.672Z,9.26
2023-05-23T22:20:55.964Z,9.25
2023-05-23T22:23:23.178Z,9.24
2023-05-23T22:25:49.967Z,9.25
2023-05-23T22:28:19.011Z,9.20
2023-05-23T22:30:56.269Z,9.21
2023-05-23T22:33:22.997Z,9.20
2023-05-23T22:35:50.149Z,9.23
2023-05-23T22:38:22.555Z,9.22
2023-05-23T22:40:50.992Z,9.29
2023-05-23T22:43:21.699Z,9.26
2023-05-23T22:45:50.081Z,9.25
2023-05-23T22:48:22.285Z,9.29
2023-05-23T22:50:50.944Z,9.27
2023-05-23T22:53:17.946Z,9.27
2023-05-23T22:55:48.012Z,9.27
2023-05-23T22:58:14.964Z,9.27
2023-05-23T23:00:41.824Z,9.29
2023-05-23T23:03:08.961Z,9.25
2023-05-23T23:05:35.857Z,9.26
2023-05-23T23:08:24.689Z,9.26
2023-05-23T23:10:57.535Z,9.27
2023-05-23T23:13:24.418Z,9.22
2023-05-23T23:15:54.806Z,9.21
2023-05-23T23:18:22.005Z,9.23
2023-05-23T23:20:48.911Z,9.28
2023-05-23T23:23:15.791Z,9.27
2023-05-23T23:25:42.619Z,9.30
2023-05-23T23:28:11.877Z,9.28
2023-05-23T23:30:38.647Z,9.28
2023-05-23T23:33:11.062Z,9.29
2023-05-23T23:35:40.999Z,9.29
2023-05-23T23:38:14.468Z,9.24
2023-05-23T23:40:45.657Z,9.29
2023-05-23T23:43:13.952Z,9.30
2023-05-23T23:45:40.822Z,9.32
2023-05-23T23:48:26.789Z,9.34
2023-05-23T23:51:01.459Z,9.31
2023-05-23T23:53:28.108Z,9.33
2023-05-23T23:55:57.048Z,9.36
2023-05-23T23:58:23.733Z,9.38
